This is the latest recevied weather packets stored in our database for station/object KF0RZX-13. If no packets are shown the sender has not sent any weather packets the latest 10 day(s).
| Time | Temp. | Humidity | Pressure | Rain* | Wind** | Luminosity | Snow |
|---|---|---|---|---|---|---|---|
| 1787513178 | 32.22° C | 28% | 1019.6 hPa | 0 mm | - | - | - |
| 1787511372 | 32.22° C | 28% | 1020 hPa | 0 mm | - | - | - |
| 1787509566 | 31.11° C | 31% | 1020.3 hPa | 0 mm | - | - | - |
| 1787507763 | 31.11° C | 33% | 1021 hPa | 0 mm | - | - | - |
| 1787505956 | 30° C | 38% | 1021 hPa | 0 mm | - | - | - |
| 1787504151 | 28.89° C | 37% | 1021 hPa | 0 mm | - | - | - |
| 1787502347 | 28.89° C | 37% | 1021 hPa | 0 mm | - | - | - |
| 1787500544 | 27.22° C | 51% | 1021 hPa | 0 mm | - | - | - |
| 1787498736 | 25° C | 61% | 1021 hPa | 0 mm | - | - | - |
| 1787496931 | 22.22° C | 78% | 1021 hPa | 0 mm | - | - | - |
| 1787495126 | 21.11° C | 83% | 1021 hPa | 0 mm | - | - | - |
| 1787493322 | 20° C | 88% | 1021 hPa | 0 mm | - | - | - |
| 1787491516 | 18.89° C | 94% | 1020.7 hPa | 0 mm | - | - | - |
| 1787489711 | 17.78° C | 100% | 1020.7 hPa | 0 mm | - | - | - |
| 1787487908 | 18.89° C | 94% | 1020.3 hPa | 0 mm | - | - | - |
| 1787486102 | 18.89° C | 94% | 1020 hPa | 0 mm | - | - | - |
| 1787484296 | 18.89° C | 94% | 1020 hPa | 0 mm | - | - | - |
| 1787482491 | 18.89° C | 100% | 1020.7 hPa | 0 mm | - | - | - |
| 1787480686 | 18.89° C | 100% | 1021 hPa | 0 mm | - | - | - |
| 1787478881 | 20° C | 100% | 1021.3 hPa | 0 mm | - | - | - |
| 1787477076 | 20° C | 94% | 1021.7 hPa | 0 mm | - | - | - |
| 1787475271 | 20° C | 94% | 1021.7 hPa | 0 mm | - | - | - |
| 1787473467 | 20° C | 94% | 1022 hPa | 0 mm | - | - | - |
| 1787471661 | 20° C | 94% | 1022.4 hPa | 0.51 mm | - | - | - |
| 1787469856 | 21.11° C | 88% | 1023.4 hPa | 0.25 mm | - | - | - |
* Rain latest hour (hover to see other rain measurements)
** Current wind speed in m/s (hover to see current wind gust speed)